Time;durP1;ratioP1;P1;durP2;ratioP2;P2;SDS_P1;SDS_P2;PMS_P1;PMS_P2;Temp;Humidity;BMP_temperature;BMP_pressure;BME280_temperature;BME280_humidity;BME280_pressure;Samples;Min_cycle;Max_cycle;Signal;HPM_P1;HPM_P2
2023/12/21 00:01:18;;;;;;;14.40;7.82;;;1.90;99.90;;;;;;5033148;28;20019;-78
2023/12/21 00:03:44;;;;;;;11.10;8.00;;;1.90;99.90;;;;;;5033266;28;20029;-79
2023/12/21 00:06:09;;;;;;;11.77;7.00;;;1.90;99.90;;;;;;5031823;28;20013;-79
2023/12/21 00:08:35;;;;;;;10.95;7.32;;;1.80;99.90;;;;;;5033202;28;20018;-78
2023/12/21 00:11:01;;;;;;;14.27;7.70;;;1.90;99.90;;;;;;5032163;28;20398;-78
2023/12/21 00:13:26;;;;;;;18.88;7.75;;;1.90;99.90;;;;;;5032556;28;20419;-79
2023/12/21 00:15:53;;;;;;;13.82;7.43;;;1.90;99.90;;;;;;5031703;28;20051;-79
2023/12/21 00:18:18;;;;;;;12.95;7.45;;;1.90;99.90;;;;;;5033083;28;20022;-79
2023/12/21 00:20:44;;;;;;;11.48;7.40;;;1.90;99.90;;;;;;5031546;28;20029;-78
2023/12/21 00:23:10;;;;;;;12.35;7.10;;;1.90;99.90;;;;;;5031434;28;20521;-79
2023/12/21 00:25:35;;;;;;;12.27;8.00;;;1.90;99.90;;;;;;5031493;28;20037;-79
2023/12/21 00:28:01;;;;;;;11.65;7.05;;;1.90;99.90;;;;;;5031568;28;20022;-79
2023/12/21 00:30:26;;;;;;;10.88;8.07;;;1.90;99.90;;;;;;5032679;28;20025;-79
2023/12/21 00:32:53;;;;;;;12.93;7.43;;;1.90;99.90;;;;;;5031463;28;20088;-77
2023/12/21 00:35:18;;;;;;;17.10;8.82;;;1.90;99.90;;;;;;5032690;28;20029;-79
2023/12/21 00:37:44;;;;;;;12.35;7.78;;;1.90;99.90;;;;;;5032705;28;20072;-77
2023/12/21 00:40:10;;;;;;;12.57;7.90;;;2.00;99.90;;;;;;5032632;28;20100;-77
2023/12/21 00:42:38;;;;;;;11.88;6.90;;;2.00;99.90;;;;;;5032532;28;20030;-77
2023/12/21 00:45:07;;;;;;;11.30;6.60;;;1.90;99.90;;;;;;5031324;28;20029;-78
2023/12/21 00:47:33;;;;;;;9.90;6.72;;;2.00;99.90;;;;;;5031456;28;20028;-77
2023/12/21 00:49:58;;;;;;;11.05;6.40;;;2.00;99.90;;;;;;5032563;28;20021;-78
2023/12/21 00:52:24;;;;;;;14.40;6.82;;;2.00;99.90;;;;;;5032670;28;20021;-79
2023/12/21 00:54:50;;;;;;;11.45;6.45;;;2.00;99.90;;;;;;5031240;28;20072;-79
2023/12/21 00:57:15;;;;;;;10.82;6.68;;;2.00;99.90;;;;;;5032475;28;20040;-79
2023/12/21 00:59:41;;;;;;;14.27;6.97;;;2.00;99.90;;;;;;5032375;28;20468;-77
2023/12/21 01:02:07;;;;;;;12.70;6.50;;;2.00;99.90;;;;;;5032516;28;20471;-77
2023/12/21 01:04:32;;;;;;;15.50;7.28;;;2.00;99.90;;;;;;5031073;28;20021;-80
2023/12/21 01:06:58;;;;;;;12.25;6.72;;;2.00;99.90;;;;;;5032357;28;20498;-77
2023/12/21 01:09:24;;;;;;;13.38;6.22;;;2.00;99.90;;;;;;5032268;28;20493;-78
2023/12/21 01:11:49;;;;;;;11.25;5.68;;;2.00;99.90;;;;;;5032359;28;20498;-77
2023/12/21 01:14:15;;;;;;;11.05;6.15;;;1.90;99.90;;;;;;5030444;28;20050;-77
2023/12/21 01:16:40;;;;;;;11.50;6.15;;;1.90;99.90;;;;;;5032443;28;20076;-77
2023/12/21 01:19:06;;;;;;;8.98;5.65;;;2.00;99.90;;;;;;5032233;28;20120;-78
2023/12/21 01:21:32;;;;;;;8.02;4.95;;;1.90;99.90;;;;;;5032416;28;20022;-78
2023/12/21 01:23:57;;;;;;;11.10;6.35;;;2.00;99.90;;;;;;5034207;28;20136;-77
2023/12/21 01:26:23;;;;;;;10.10;5.28;;;1.90;99.90;;;;;;5036213;28;20554;-78
2023/12/21 01:28:49;;;;;;;8.70;5.85;;;1.90;99.90;;;;;;5036145;28;20479;-77
2023/12/21 01:31:14;;;;;;;10.88;5.75;;;2.00;99.90;;;;;;5034882;28;20472;-80
2023/12/21 01:33:40;;;;;;;8.98;5.70;;;1.90;99.90;;;;;;5034626;28;20163;-79
2023/12/21 01:36:07;;;;;;;8.52;5.93;;;2.00;99.90;;;;;;5035021;28;20053;-78
2023/12/21 01:38:33;;;;;;;10.15;6.43;;;2.00;99.90;;;;;;5036001;28;20024;-79
2023/12/21 01:40:59;;;;;;;7.53;5.32;;;2.00;99.90;;;;;;5036122;28;20048;-79
2023/12/21 01:43:25;;;;;;;8.13;5.60;;;2.00;99.90;;;;;;5034073;28;20112;-79
2023/12/21 01:45:56;;;;;;;10.63;5.95;;;2.00;99.90;;;;;;5034707;28;20014;-77
2023/12/21 01:48:22;;;;;;;8.88;5.55;;;2.10;99.90;;;;;;5034531;28;20108;-78
2023/12/21 01:50:48;;;;;;;9.25;6.20;;;2.10;99.90;;;;;;5034619;28;20021;-78
2023/12/21 01:53:15;;;;;;;12.50;6.85;;;2.10;99.90;;;;;;5035614;28;20014;-78
2023/12/21 01:55:42;;;;;;;8.95;5.13;;;2.10;99.90;;;;;;5035795;28;20458;-78
2023/12/21 01:58:08;;;;;;;9.73;5.28;;;2.10;99.90;;;;;;5034201;28;20014;-77
2023/12/21 02:00:34;;;;;;;7.70;4.88;;;2.10;99.90;;;;;;5034300;28;20416;-77
2023/12/21 02:03:01;;;;;;;12.77;6.05;;;2.20;99.90;;;;;;5033979;28;20097;-78
2023/12/21 02:05:26;;;;;;;8.25;5.30;;;2.10;99.90;;;;;;5034324;28;20034;-79
2023/12/21 02:07:52;;;;;;;10.35;5.75;;;2.20;99.90;;;;;;5033665;28;20079;-79
2023/12/21 02:10:18;;;;;;;14.43;6.50;;;2.20;99.90;;;;;;5035554;28;20068;-78
2023/12/21 02:12:44;;;;;;;7.40;5.20;;;2.20;99.90;;;;;;5034528;28;20060;-79
2023/12/21 02:15:10;;;;;;;8.43;6.07;;;2.20;99.90;;;;;;5035342;28;20060;-79
2023/12/21 02:17:37;;;;;;;11.85;6.20;;;2.20;99.90;;;;;;5033795;28;20116;-78
2023/12/21 02:20:05;;;;;;;11.50;7.07;;;2.20;99.90;;;;;;5034053;28;20025;-78
2023/12/21 02:22:34;;;;;;;7.82;6.05;;;2.20;99.90;;;;;;5034999;28;20024;-79
2023/12/21 02:25:00;;;;;;;9.70;6.40;;;2.20;99.90;;;;;;5035188;28;20068;-77
2023/12/21 02:27:26;;;;;;;12.98;6.78;;;2.20;99.90;;;;;;5034695;28;20025;-77
2023/12/21 02:29:51;;;;;;;12.93;6.25;;;2.20;99.90;;;;;;5033824;28;20108;-78
2023/12/21 02:32:17;;;;;;;11.18;6.30;;;2.20;99.90;;;;;;5033546;28;20070;-78
2023/12/21 02:34:43;;;;;;;8.02;6.10;;;2.20;99.90;;;;;;5024800;28;20075;-79
2023/12/21 02:37:08;;;;;;;10.88;6.03;;;2.20;99.90;;;;;;5032620;28;20017;-77
2023/12/21 02:39:34;;;;;;;10.93;6.55;;;2.20;99.90;;;;;;5031588;28;20391;-77
2023/12/21 02:42:00;;;;;;;8.13;6.55;;;2.20;99.90;;;;;;5033197;28;20494;-77
2023/12/21 02:44:25;;;;;;;7.85;5.88;;;2.10;99.90;;;;;;5033614;28;20048;-77
2023/12/21 02:46:51;;;;;;;13.73;6.63;;;2.20;99.90;;;;;;5034863;28;20112;-78
2023/12/21 02:49:16;;;;;;;7.90;6.53;;;2.20;99.90;;;;;;5030232;28;20021;-78
2023/12/21 02:51:42;;;;;;;8.23;5.10;;;2.20;99.90;;;;;;5024267;28;20108;-79
2023/12/21 02:54:08;;;;;;;7.50;5.30;;;2.20;99.90;;;;;;5032776;28;20034;-79
2023/12/21 02:56:33;;;;;;;9.52;5.57;;;2.20;99.90;;;;;;5033146;28;20028;-79
2023/12/21 02:58:59;;;;;;;8.25;5.57;;;2.20;99.90;;;;;;5032069;28;20429;-78
2023/12/21 03:01:24;;;;;;;8.63;5.60;;;2.20;99.90;;;;;;5034465;28;20517;-77
2023/12/21 03:03:51;;;;;;;8.57;5.70;;;2.20;99.90;;;;;;5034507;28;20373;-78
2023/12/21 03:06:17;;;;;;;12.80;6.72;;;2.20;99.90;;;;;;5034278;28;20440;-78
2023/12/21 03:08:43;;;;;;;7.55;5.10;;;2.20;99.90;;;;;;5032949;28;20041;-78
2023/12/21 03:11:08;;;;;;;10.88;5.57;;;2.20;99.90;;;;;;5034172;28;20108;-78
2023/12/21 03:13:34;;;;;;;9.13;5.78;;;2.20;99.90;;;;;;5032605;28;20026;-77
2023/12/21 03:16:06;;;;;;;7.13;5.35;;;2.20;99.90;;;;;;5034554;28;20026;-77
2023/12/21 03:18:32;;;;;;;8.38;6.18;;;2.20;99.90;;;;;;5022000;28;20048;-78
2023/12/21 03:20:57;;;;;;;8.23;5.63;;;2.20;99.90;;;;;;5032949;28;20025;-78
2023/12/21 03:23:23;;;;;;;7.40;4.97;;;2.30;99.90;;;;;;5032845;28;20029;-78
2023/12/21 03:25:49;;;;;;;8.93;4.57;;;2.30;99.90;;;;;;5032800;28;20018;-78
2023/12/21 03:28:15;;;;;;;5.28;4.53;;;2.30;99.90;;;;;;5032316;28;20018;-77
2023/12/21 03:30:41;;;;;;;7.43;4.32;;;2.30;99.90;;;;;;5032721;28;20026;-79
2023/12/21 03:33:07;;;;;;;9.55;4.72;;;2.30;99.90;;;;;;5033619;28;20403;-78
2023/12/21 03:35:33;;;;;;;6.55;3.80;;;2.30;99.90;;;;;;5032470;28;20033;-78
2023/12/21 03:37:58;;;;;;;9.82;5.00;;;2.20;99.90;;;;;;5033496;28;20017;-78
2023/12/21 03:40:24;;;;;;;6.00;4.45;;;2.30;99.90;;;;;;5033816;28;20030;-79
2023/12/21 03:42:52;;;;;;;5.80;4.65;;;2.30;99.90;;;;;;5033538;28;20099;-79
2023/12/21 03:45:19;;;;;;;7.13;4.32;;;2.30;99.90;;;;;;5032198;28;20022;-79
2023/12/21 03:47:45;;;;;;;7.18;4.45;;;2.30;99.90;;;;;;5033676;28;20029;-78
2023/12/21 03:50:10;;;;;;;6.70;4.10;;;2.30;99.90;;;;;;5033183;28;20032;-78
2023/12/21 03:52:36;;;;;;;8.05;4.95;;;2.30;99.90;;;;;;5033112;28;20026;-77
2023/12/21 03:55:02;;;;;;;5.55;3.88;;;2.30;99.90;;;;;;5032236;28;20044;-79
2023/12/21 03:57:27;;;;;;;7.32;4.00;;;2.30;99.90;;;;;;5032035;28;20025;-78
2023/12/21 03:59:53;;;;;;;4.80;4.05;;;2.30;99.90;;;;;;5031920;28;20511;-78
2023/12/21 04:02:19;;;;;;;5.15;3.90;;;2.30;99.90;;;;;;5033372;28;20021;-78
2023/12/21 04:04:44;;;;;;;6.60;4.75;;;2.30;99.90;;;;;;5031856;28;20052;-78
2023/12/21 04:07:10;;;;;;;5.20;4.03;;;2.30;99.90;;;;;;5031940;28;20380;-77
2023/12/21 04:09:36;;;;;;;6.10;4.68;;;2.30;99.90;;;;;;5033206;28;20034;-78
2023/12/21 04:12:01;;;;;;;5.88;3.83;;;2.20;99.90;;;;;;5032031;28;20022;-78
2023/12/21 04:14:27;;;;;;;6.03;4.07;;;2.20;99.90;;;;;;5031891;28;20034;-78
2023/12/21 04:16:52;;;;;;;5.80;3.80;;;2.20;99.90;;;;;;5032999;28;20044;-78
2023/12/21 04:19:18;;;;;;;4.53;4.05;;;2.20;99.90;;;;;;5031728;28;20113;-78
2023/12/21 04:21:44;;;;;;;5.25;3.58;;;2.10;99.90;;;;;;5031397;28;20020;-77
2023/12/21 04:24:10;;;;;;;4.65;3.83;;;2.10;99.90;;;;;;5033064;28;20033;-77
2023/12/21 04:26:36;;;;;;;5.95;4.68;;;2.10;99.90;;;;;;5033088;28;20021;-78
2023/12/21 04:29:01;;;;;;;8.07;4.47;;;2.10;99.90;;;;;;5033051;28;20096;-77
2023/12/21 04:31:27;;;;;;;7.18;4.53;;;2.10;99.90;;;;;;5032564;28;20025;-79
2023/12/21 04:33:52;;;;;;;7.30;4.28;;;2.10;99.90;;;;;;5032840;28;20053;-78
2023/12/21 04:36:19;;;;;;;5.40;4.30;;;2.10;99.90;;;;;;5032880;28;20056;-77
2023/12/21 04:38:45;;;;;;;5.75;4.70;;;2.10;99.90;;;;;;5032798;28;20495;-78
2023/12/21 04:41:11;;;;;;;4.10;3.70;;;2.10;99.90;;;;;;5032667;28;20034;-79
2023/12/21 04:43:36;;;;;;;3.97;3.30;;;2.10;99.90;;;;;;5031261;28;20483;-78
2023/12/21 04:46:04;;;;;;;5.50;3.90;;;2.20;99.90;;;;;;5031262;28;20028;-79
2023/12/21 04:48:29;;;;;;;3.50;3.15;;;2.20;99.90;;;;;;5031565;28;20021;-78
2023/12/21 04:50:55;;;;;;;5.00;3.22;;;2.10;99.90;;;;;;5030883;28;20021;-78
2023/12/21 04:53:21;;;;;;;4.53;3.38;;;2.20;99.90;;;;;;5031574;28;20021;-77
2023/12/21 04:55:48;;;;;;;4.25;3.10;;;2.20;99.90;;;;;;5032373;28;20033;-78
2023/12/21 04:58:14;;;;;;;4.40;3.25;;;2.30;99.90;;;;;;5030642;28;20379;-78
2023/12/21 05:00:44;;;;;;;4.82;3.38;;;2.20;99.90;;;;;;5032432;28;20030;-78
2023/12/21 05:03:10;;;;;;;4.95;3.47;;;2.30;99.90;;;;;;5031195;28;20033;-78
2023/12/21 05:05:35;;;;;;;4.22;3.15;;;2.30;99.90;;;;;;5032605;28;20030;-79
2023/12/21 05:08:01;;;;;;;4.20;2.50;;;2.30;99.90;;;;;;5031129;28;20040;-78
2023/12/21 05:10:27;;;;;;;4.72;2.78;;;2.30;99.90;;;;;;5032538;28;20063;-79
2023/12/21 05:12:52;;;;;;;6.38;3.55;;;2.40;99.90;;;;;;5031114;28;20116;-78
2023/12/21 05:15:18;;;;;;;3.83;2.97;;;2.40;99.90;;;;;;5031150;28;20436;-79
2023/12/21 05:17:44;;;;;;;3.47;2.70;;;2.40;99.90;;;;;;5030936;28;20029;-78
2023/12/21 05:20:10;;;;;;;3.38;2.60;;;2.50;99.90;;;;;;5032163;28;20463;-77
2023/12/21 05:22:35;;;;;;;4.32;2.80;;;2.50;99.90;;;;;;5030893;28;20030;-77
2023/12/21 05:25:01;;;;;;;3.25;2.45;;;2.60;99.90;;;;;;5030699;28;20010;-77
2023/12/21 05:27:27;;;;;;;4.50;2.85;;;2.60;99.90;;;;;;5025765;28;20032;-79
2023/12/21 05:29:53;;;;;;;7.50;2.88;;;2.70;99.90;;;;;;5031948;28;20038;-79
2023/12/21 05:32:19;;;;;;;3.55;2.20;;;2.70;99.90;;;;;;5030538;28;20180;-78
2023/12/21 05:34:45;;;;;;;3.65;2.78;;;2.70;99.90;;;;;;5031118;28;20539;-77
2023/12/21 05:37:10;;;;;;;4.53;2.78;;;2.70;99.90;;;;;;5031894;28;20426;-78
2023/12/21 05:39:37;;;;;;;3.67;2.63;;;2.70;99.90;;;;;;5030669;28;20068;-76
2023/12/21 05:42:03;;;;;;;3.88;2.30;;;2.70;99.90;;;;;;5031800;28;20475;-76
2023/12/21 05:44:29;;;;;;;4.25;3.17;;;2.70;99.90;;;;;;5025812;28;20061;-76
2023/12/21 05:46:55;;;;;;;7.63;3.58;;;2.80;99.90;;;;;;5032136;28;20010;-78
2023/12/21 05:49:20;;;;;;;5.35;2.80;;;2.80;99.90;;;;;;5031717;28;20558;-78
2023/12/21 05:51:48;;;;;;;5.97;2.83;;;2.80;99.90;;;;;;5030514;28;20029;-78
2023/12/21 05:54:14;;;;;;;2.15;2.05;;;2.80;99.90;;;;;;5030628;28;20055;-78
2023/12/21 05:56:41;;;;;;;4.20;2.72;;;2.80;99.90;;;;;;5032018;28;20021;-78
2023/12/21 05:59:06;;;;;;;2.63;2.42;;;2.80;99.90;;;;;;5029828;28;20101;-78
2023/12/21 06:01:34;;;;;;;3.33;2.30;;;2.80;99.90;;;;;;5030615;28;20038;-78
2023/12/21 06:03:59;;;;;;;4.05;2.50;;;2.80;99.90;;;;;;5030832;28;20057;-78
2023/12/21 06:06:26;;;;;;;4.07;2.60;;;2.80;99.90;;;;;;5030187;28;20049;-79
2023/12/21 06:08:52;;;;;;;2.55;2.35;;;2.80;99.90;;;;;;5031653;28;20032;-78
2023/12/21 06:11:18;;;;;;;2.83;2.53;;;2.80;99.90;;;;;;5033581;28;20022;-77
2023/12/21 06:13:44;;;;;;;3.85;3.13;;;2.80;99.90;;;;;;5031890;28;20032;-78
2023/12/21 06:16:11;;;;;;;4.25;2.75;;;2.70;99.90;;;;;;5030860;28;20068;-77
2023/12/21 06:18:38;;;;;;;3.08;2.60;;;2.70;99.90;;;;;;5033897;28;20505;-78
2023/12/21 06:21:04;;;;;;;3.17;2.63;;;2.70;99.90;;;;;;5035010;28;20584;-77
2023/12/21 06:23:29;;;;;;;3.78;2.58;;;2.70;99.90;;;;;;5033044;28;20097;-77
2023/12/21 06:25:55;;;;;;;3.72;2.70;;;2.70;99.90;;;;;;5033031;28;20021;-78
2023/12/21 06:28:22;;;;;;;3.17;2.67;;;2.70;99.90;;;;;;5034339;28;20017;-78
2023/12/21 06:30:47;;;;;;;5.40;3.83;;;2.60;99.90;;;;;;5034484;28;20021;-79
2023/12/21 06:33:13;;;;;;;3.08;2.75;;;2.60;99.90;;;;;;5024194;28;20566;-79
2023/12/21 06:35:39;;;;;;;6.15;2.83;;;2.60;99.90;;;;;;5033845;28;20434;-78
2023/12/21 06:38:06;;;;;;;4.93;2.85;;;2.60;99.90;;;;;;5033651;28;20037;-78
2023/12/21 06:40:32;;;;;;;3.63;3.13;;;2.60;99.90;;;;;;5033603;28;20021;-78
2023/12/21 06:42:58;;;;;;;4.22;2.67;;;2.60;99.90;;;;;;5034747;28;20018;-78
2023/12/21 06:45:23;;;;;;;2.47;2.28;;;2.60;99.90;;;;;;5033190;28;20037;-79
2023/12/21 06:47:49;;;;;;;3.33;2.20;;;2.60;99.90;;;;;;5034671;28;20471;-78
2023/12/21 06:50:15;;;;;;;3.10;2.80;;;2.60;99.90;;;;;;5032639;28;20026;-79
2023/12/21 06:52:40;;;;;;;2.85;2.20;;;2.60;99.90;;;;;;5031527;28;20029;-78
2023/12/21 06:55:08;;;;;;;6.68;3.20;;;2.50;99.90;;;;;;5031126;28;20044;-78
2023/12/21 06:57:34;;;;;;;5.75;3.58;;;2.50;99.90;;;;;;5026574;28;20026;-78
2023/12/21 06:59:59;;;;;;;3.40;2.72;;;2.60;99.90;;;;;;5032294;28;20037;-79
2023/12/21 07:02:25;;;;;;;3.92;2.72;;;2.50;99.90;;;;;;5032511;28;20030;-79
2023/12/21 07:04:51;;;;;;;3.95;2.42;;;2.50;99.90;;;;;;5032381;28;20388;-79
2023/12/21 07:07:16;;;;;;;5.35;3.00;;;2.50;99.90;;;;;;5033986;28;20483;-78
2023/12/21 07:09:42;;;;;;;2.95;2.75;;;2.50;99.90;;;;;;5032751;28;20079;-79
2023/12/21 07:12:08;;;;;;;4.05;3.00;;;2.50;99.90;;;;;;5032908;28;20052;-79
2023/12/21 07:14:37;;;;;;;5.10;3.35;;;2.40;99.90;;;;;;5033583;28;20060;-79
2023/12/21 07:17:03;;;;;;;4.45;3.38;;;2.40;99.90;;;;;;5032021;28;20029;-78
2023/12/21 07:19:28;;;;;;;3.38;2.95;;;2.40;99.90;;;;;;5033971;28;20510;-78
2023/12/21 07:21:54;;;;;;;6.28;3.67;;;2.40;99.90;;;;;;5033617;28;20071;-79
2023/12/21 07:24:19;;;;;;;5.63;3.75;;;2.40;99.90;;;;;;5034015;28;20457;-78
2023/12/21 07:26:45;;;;;;;4.65;3.45;;;2.30;99.90;;;;;;5032565;28;20025;-79
2023/12/21 07:29:11;;;;;;;4.28;2.83;;;2.30;99.90;;;;;;5023934;28;20036;-79
2023/12/21 07:31:36;;;;;;;4.03;3.63;;;2.30;99.90;;;;;;5030625;28;20042;-78
2023/12/21 07:34:02;;;;;;;4.35;3.22;;;2.20;99.90;;;;;;5033353;28;20057;-79
2023/12/21 07:36:27;;;;;;;4.40;3.22;;;2.20;99.90;;;;;;5027834;28;20026;-78
2023/12/21 07:38:53;;;;;;;5.50;3.58;;;2.20;99.90;;;;;;5031872;28;20037;-78
2023/12/21 07:41:19;;;;;;;5.47;3.83;;;2.10;99.90;;;;;;5031843;28;20067;-78
2023/12/21 07:43:44;;;;;;;3.67;2.78;;;2.10;99.90;;;;;;5030716;28;20056;-79
2023/12/21 07:46:11;;;;;;;2.85;2.33;;;2.00;99.90;;;;;;5031079;28;20037;-79
2023/12/21 07:48:36;;;;;;;3.90;2.70;;;2.00;99.90;;;;;;5031246;28;20021;-79
2023/12/21 07:51:02;;;;;;;6.60;2.95;;;1.90;99.90;;;;;;5031259;28;20028;-79
2023/12/21 07:53:28;;;;;;;4.72;2.80;;;1.90;99.90;;;;;;5027102;28;20033;-78
2023/12/21 07:55:53;;;;;;;3.60;3.17;;;1.90;99.90;;;;;;5029242;28;20388;-79
2023/12/21 07:58:19;;;;;;;4.50;3.17;;;1.90;99.90;;;;;;5025690;28;20029;-78
2023/12/21 08:00:44;;;;;;;4.50;3.20;;;1.90;99.90;;;;;;5028485;28;20017;-79
2023/12/21 08:03:10;;;;;;;4.25;3.70;;;1.90;99.90;;;;;;5029074;28;20475;-78
2023/12/21 08:05:36;;;;;;;3.58;3.10;;;1.80;99.90;;;;;;5025349;28;20250;-78
2023/12/21 08:08:03;;;;;;;4.20;2.90;;;1.80;99.90;;;;;;5030269;28;20035;-79
2023/12/21 08:10:30;;;;;;;4.80;3.13;;;1.90;99.90;;;;;;5027701;28;20017;-78
2023/12/21 08:12:55;;;;;;;4.25;3.85;;;1.90;99.90;;;;;;5030431;28;20026;-78
2023/12/21 08:15:21;;;;;;;8.68;5.00;;;1.80;99.90;;;;;;5027141;28;20049;-78
2023/12/21 08:17:51;;;;;;;16.33;8.15;;;1.80;99.90;;;;;;5028794;28;20124;-78
2023/12/21 08:20:16;;;;;;;12.43;6.65;;;1.90;99.90;;;;;;5032030;28;20386;-78
2023/12/21 08:22:43;;;;;;;7.95;4.70;;;1.90;99.90;;;;;;5021353;28;20033;-79
2023/12/21 08:25:09;;;;;;;5.70;3.85;;;1.80;99.90;;;;;;5033048;28;20010;-78
2023/12/21 08:27:34;;;;;;;5.70;3.65;;;1.90;99.90;;;;;;5032569;28;20028;-78
2023/12/21 08:30:00;;;;;;;4.50;3.63;;;1.80;99.90;;;;;;5031792;28;20025;-78
2023/12/21 08:32:27;;;;;;;4.40;3.30;;;1.80;99.90;;;;;;5031589;28;20050;-79
2023/12/21 08:34:53;;;;;;;6.35;5.32;;;1.80;99.90;;;;;;5032939;28;20410;-78
2023/12/21 08:37:18;;;;;;;9.43;5.72;;;1.80;99.90;;;;;;5031230;28;20021;-79
2023/12/21 08:39:44;;;;;;;6.07;4.53;;;1.80;99.90;;;;;;5031465;28;20495;-79
2023/12/21 08:42:10;;;;;;;5.10;4.07;;;1.80;99.90;;;;;;5031197;28;20810;-79
2023/12/21 08:44:36;;;;;;;4.93;3.55;;;1.80;99.90;;;;;;5031777;28;20402;-78
2023/12/21 08:47:02;;;;;;;6.43;4.20;;;1.80;99.90;;;;;;5031474;28;20017;-78
2023/12/21 08:49:27;;;;;;;5.47;4.93;;;1.80;99.90;;;;;;5032697;28;20029;-78
2023/12/21 08:51:53;;;;;;;4.05;3.65;;;1.80;99.90;;;;;;5032043;28;20036;-78
2023/12/21 08:54:19;;;;;;;4.72;3.63;;;1.80;99.90;;;;;;5032571;28;20099;-79
2023/12/21 08:56:45;;;;;;;4.50;3.75;;;1.80;99.90;;;;;;5031055;28;20064;-78
2023/12/21 08:59:11;;;;;;;4.43;3.35;;;1.80;99.90;;;;;;5032528;28;20025;-78
2023/12/21 09:01:37;;;;;;;6.18;3.35;;;1.80;99.90;;;;;;5031057;28;20441;-78
2023/12/21 09:04:04;;;;;;;7.50;3.80;;;1.90;99.90;;;;;;5031225;28;20024;-78
2023/12/21 09:06:31;;;;;;;7.78;4.28;;;1.90;99.90;;;;;;5032381;28;20387;-78
2023/12/21 09:08:57;;;;;;;5.13;4.63;;;1.90;99.90;;;;;;5032507;28;20017;-78
2023/12/21 09:11:24;;;;;;;6.78;4.70;;;1.90;99.90;;;;;;5030798;28;20108;-79
2023/12/21 09:13:49;;;;;;;5.82;4.55;;;1.90;99.90;;;;;;5031243;28;20060;-78
2023/12/21 09:16:17;;;;;;;7.20;4.30;;;1.90;99.90;;;;;;5032079;28;20050;-78
2023/12/21 09:18:46;;;;;;;6.72;4.22;;;2.00;99.90;;;;;;5031004;28;20025;-78
2023/12/21 09:21:12;;;;;;;4.90;3.60;;;2.00;99.90;;;;;;5032414;28;20056;-78
2023/12/21 09:23:39;;;;;;;6.75;3.95;;;2.00;99.90;;;;;;5030906;28;20468;-78
2023/12/21 09:26:08;;;;;;;5.18;3.92;;;2.00;99.90;;;;;;5032323;28;20021;-79
2023/12/21 09:28:36;;;;;;;8.05;5.05;;;2.00;99.90;;;;;;5030941;28;20117;-79
2023/12/21 09:31:03;;;;;;;5.60;4.07;;;2.10;99.90;;;;;;5030953;28;20013;-79
2023/12/21 09:33:32;;;;;;;6.20;3.83;;;2.10;99.90;;;;;;5030919;28;20391;-78
2023/12/21 09:35:58;;;;;;;4.90;3.95;;;2.10;99.90;;;;;;5031989;28;20025;-79
2023/12/21 09:38:24;;;;;;;5.93;4.35;;;2.20;99.90;;;;;;5032308;28;20467;-78
2023/12/21 09:40:50;;;;;;;10.32;4.80;;;2.20;99.90;;;;;;5030877;28;20070;-78
2023/12/21 09:43:21;;;;;;;6.40;4.68;;;2.20;99.90;;;;;;5031300;28;20148;-79
2023/12/21 09:45:51;;;;;;;4.10;3.70;;;2.30;99.90;;;;;;5034283;28;20808;-78
2023/12/21 09:48:18;;;;;;;8.80;4.63;;;2.30;99.90;;;;;;5036023;28;20022;-78
2023/12/21 09:50:45;;;;;;;4.28;3.85;;;2.40;99.90;;;;;;5034597;28;20048;-79
2023/12/21 09:53:13;;;;;;;5.75;4.40;;;2.40;99.90;;;;;;5034632;28;20045;-78
2023/12/21 09:55:42;;;;;;;7.30;4.78;;;2.40;99.90;;;;;;5035500;28;20037;-79
2023/12/21 09:58:10;;;;;;;5.95;3.63;;;2.50;99.90;;;;;;5034525;28;20033;-78
2023/12/21 10:00:36;;;;;;;32.10;12.75;;;2.50;99.90;;;;;;5035533;28;20060;-78
2023/12/21 10:03:03;;;;;;;5.85;4.32;;;2.50;99.90;;;;;;5034470;28;20112;-78
2023/12/21 10:05:29;;;;;;;6.20;4.20;;;2.60;99.90;;;;;;5034325;28;20550;-78
2023/12/21 10:07:55;;;;;;;7.80;5.00;;;2.60;99.90;;;;;;5035699;28;20067;-79
2023/12/21 10:10:21;;;;;;;5.75;3.63;;;2.70;99.90;;;;;;5035478;28;20098;-78
2023/12/21 10:12:47;;;;;;;9.88;4.75;;;2.70;99.90;;;;;;5034260;28;20467;-79
2023/12/21 10:15:13;;;;;;;8.38;4.90;;;2.80;99.90;;;;;;5035090;28;20037;-79
2023/12/21 10:17:39;;;;;;;5.53;3.53;;;2.80;99.90;;;;;;5035394;28;20043;-78
2023/12/21 10:20:05;;;;;;;8.27;5.00;;;2.80;99.90;;;;;;5035420;28;20052;-79
2023/12/21 10:22:32;;;;;;;5.88;3.53;;;2.90;99.90;;;;;;5034262;28;20072;-78
2023/12/21 10:24:58;;;;;;;8.23;5.25;;;3.00;99.90;;;;;;5035279;28;20108;-78
2023/12/21 10:27:25;;;;;;;7.47;4.25;;;3.10;99.90;;;;;;5035142;28;20022;-79
2023/12/21 10:29:55;;;;;;;7.55;5.40;;;3.10;99.90;;;;;;5029219;28;20020;-78
2023/12/21 10:32:21;;;;;;;21.77;8.05;;;3.20;99.90;;;;;;5028726;28;20052;-78
2023/12/21 10:34:53;;;;;;;37.80;14.35;;;3.30;99.90;;;;;;5029761;28;20034;-78
2023/12/21 10:37:20;;;;;;;4.28;2.78;;;3.30;99.90;;;;;;5029299;28;20424;-78
2023/12/21 10:39:46;;;;;;;9.70;5.20;;;3.40;99.90;;;;;;5022873;28;20024;-78
2023/12/21 10:42:15;;;;;;;4.78;3.55;;;3.40;99.90;;;;;;5034748;28;20022;-79
2023/12/21 10:44:59;;;;;;;5.57;3.13;;;3.50;99.90;;;;;;5034375;28;20571;-78
2023/12/21 10:47:25;;;;;;;3.33;2.97;;;3.50;99.90;;;;;;5033250;28;20472;-79
2023/12/21 10:49:51;;;;;;;2.67;2.40;;;3.60;99.90;;;;;;5035086;28;20040;-78
2023/12/21 10:52:18;;;;;;;3.47;2.95;;;3.60;99.90;;;;;;5034441;28;20515;-78
2023/12/21 10:54:46;;;;;;;4.80;2.92;;;3.60;99.90;;;;;;5032875;28;20037;-78
2023/12/21 10:57:14;;;;;;;3.03;2.80;;;3.70;99.90;;;;;;5030429;28;20045;-78
2023/12/21 10:59:43;;;;;;;3.47;3.13;;;3.80;99.90;;;;;;5015142;28;20030;-78
2023/12/21 11:02:12;;;;;;;5.45;2.72;;;3.80;99.90;;;;;;5033105;28;20021;-78
2023/12/21 11:04:39;;;;;;;4.30;3.25;;;3.80;99.90;;;;;;5026780;28;20479;-78
2023/12/21 11:07:06;;;;;;;3.13;2.30;;;3.80;99.90;;;;;;5032411;28;20448;-78
2023/12/21 11:09:32;;;;;;;4.78;2.90;;;3.90;99.90;;;;;;5033396;28;20037;-78
2023/12/21 11:11:58;;;;;;;5.20;3.67;;;3.90;99.90;;;;;;5032500;28;20037;-78
2023/12/21 11:14:24;;;;;;;4.13;2.70;;;4.00;99.90;;;;;;5033975;28;20391;-78
2023/12/21 11:17:00;;;;;;;6.03;2.88;;;4.00;99.90;;;;;;5033115;28;20151;-78
2023/12/21 11:19:30;;;;;;;3.20;2.78;;;4.00;99.90;;;;;;5033706;28;20025;-78
2023/12/21 11:21:57;;;;;;;4.53;2.65;;;4.00;99.90;;;;;;5030651;28;20132;-78
2023/12/21 11:24:23;;;;;;;3.28;2.50;;;4.10;99.90;;;;;;5031365;28;20529;-78
2023/12/21 11:26:50;;;;;;;2.83;2.50;;;4.10;99.90;;;;;;5031827;28;20056;-79
2023/12/21 11:29:23;;;;;;;2.85;2.45;;;4.10;99.90;;;;;;5029834;28;20021;-78
2023/12/21 11:31:49;;;;;;;2.72;2.53;;;4.10;99.90;;;;;;5045409;28;20068;-79
2023/12/21 11:34:18;;;;;;;2.95;2.65;;;4.10;99.90;;;;;;5027130;28;20107;-78
2023/12/21 11:36:46;;;;;;;4.07;3.00;;;4.10;99.90;;;;;;5028439;28;20032;-79
2023/12/21 11:39:15;;;;;;;2.95;2.72;;;4.10;99.90;;;;;;5025737;28;20045;-78
2023/12/21 11:41:57;;;;;;;2.92;2.63;;;4.10;99.90;;;;;;5024741;28;20025;-78
2023/12/21 11:44:24;;;;;;;4.60;2.67;;;4.10;99.90;;;;;;5034219;28;20055;-78
2023/12/21 11:46:55;;;;;;;3.03;2.17;;;4.00;99.90;;;;;;5032901;28;20025;-78
2023/12/21 11:49:24;;;;;;;3.88;2.25;;;4.10;99.90;;;;;;5034670;28;20152;-77
2023/12/21 11:51:51;;;;;;;2.97;2.47;;;4.00;99.90;;;;;;5026322;28;20022;-78
2023/12/21 11:54:24;;;;;;;2.97;1.92;;;4.00;99.90;;;;;;5032662;28;20083;-78
2023/12/21 11:56:55;;;;;;;2.40;2.20;;;3.90;99.90;;;;;;5039451;28;20525;-77
2023/12/21 11:59:27;;;;;;;4.00;2.40;;;3.90;99.90;;;;;;5038106;28;20086;-79
2023/12/21 12:01:53;;;;;;;4.18;2.50;;;3.90;99.90;;;;;;5039971;28;20494;-78
2023/12/21 12:04:19;;;;;;;2.97;2.28;;;3.80;99.90;;;;;;5039480;28;20026;-77
2023/12/21 12:06:47;;;;;;;2.92;2.40;;;3.80;99.90;;;;;;5042283;28;20043;-78
2023/12/21 12:09:12;;;;;;;2.63;2.42;;;3.70;99.90;;;;;;5047163;28;20013;-79
2023/12/21 12:11:39;;;;;;;4.72;3.25;;;3.70;99.90;;;;;;5031540;28;20036;-78
2023/12/21 12:14:05;;;;;;;3.17;2.58;;;3.60;99.90;;;;;;5035838;28;20027;-78
2023/12/21 12:16:34;;;;;;;4.22;2.50;;;3.50;99.90;;;;;;5021355;28;20033;-78
2023/12/21 12:19:00;;;;;;;3.40;2.40;;;3.50;99.90;;;;;;5039840;28;20378;-78
2023/12/21 12:21:34;;;;;;;2.28;2.08;;;3.50;99.90;;;;;;5035601;28;20037;-79
2023/12/21 12:24:01;;;;;;;2.78;2.42;;;3.50;99.90;;;;;;5031408;28;20022;-79
2023/12/21 12:26:27;;;;;;;2.78;2.58;;;3.40;99.90;;;;;;5031153;28;20047;-78
2023/12/21 12:28:53;;;;;;;3.63;2.50;;;3.30;99.90;;;;;;5047283;28;20037;-78
2023/12/21 12:31:19;;;;;;;3.03;2.72;;;3.30;99.90;;;;;;5032089;28;20083;-80
2023/12/21 12:33:47;;;;;;;2.60;2.40;;;3.30;99.90;;;;;;5045365;28;20033;-79
2023/12/21 12:36:18;;;;;;;2.97;2.78;;;3.20;99.90;;;;;;5039875;28;20034;-80
2023/12/21 12:38:50;;;;;;;5.47;3.03;;;3.20;99.90;;;;;;5037118;28;20053;-80
2023/12/21 12:41:20;;;;;;;5.32;4.13;;;3.20;99.90;;;;;;5040573;28;20036;-79
2023/12/21 12:43:46;;;;;;;3.35;2.53;;;3.20;99.90;;;;;;5036155;28;20017;-79
2023/12/21 12:46:16;;;;;;;2.78;2.42;;;3.10;99.90;;;;;;5047571;28;20026;-79
2023/12/21 12:48:42;;;;;;;3.83;2.50;;;3.10;99.90;;;;;;5046160;28;20017;-79
2023/12/21 12:51:11;;;;;;;3.38;3.08;;;3.10;99.90;;;;;;5045896;28;20505;-79